createdAt,value
2019-03-09T00:00:53.698Z,2.27
2019-03-09T00:03:20.731Z,2.43
2019-03-09T00:05:47.569Z,1.87
2019-03-09T00:08:14.834Z,2.07
2019-03-09T00:10:41.651Z,2.20
2019-03-09T00:13:08.782Z,1.70
2019-03-09T00:15:35.787Z,2.03
2019-03-09T00:18:02.718Z,1.90
2019-03-09T00:20:29.727Z,1.97
2019-03-09T00:23:22.051Z,2.17
2019-03-09T00:26:26.755Z,1.90
2019-03-09T00:29:02.013Z,1.83
2019-03-09T00:31:43.054Z,1.60
2019-03-09T00:34:10.146Z,2.00
2019-03-09T00:36:36.951Z,1.97
2019-03-09T00:39:23.626Z,2.10
2019-03-09T00:41:50.786Z,2.07
2019-03-09T00:44:17.913Z,1.70
2019-03-09T00:46:44.867Z,1.77
2019-03-09T00:49:11.686Z,2.23
2019-03-09T00:51:38.915Z,2.00
2019-03-09T00:54:05.942Z,2.00
2019-03-09T00:56:32.755Z,1.80
2019-03-09T00:58:59.660Z,1.87
2019-03-09T01:01:26.630Z,1.53
2019-03-09T01:03:53.450Z,2.33
2019-03-09T01:06:20.380Z,2.20
2019-03-09T01:08:47.342Z,2.17
2019-03-09T01:11:14.287Z,2.50
2019-03-09T01:13:41.185Z,2.33
2019-03-09T01:16:08.267Z,1.97
2019-03-09T01:18:35.174Z,2.30
2019-03-09T01:21:01.991Z,2.30
2019-03-09T01:23:29.052Z,2.40
2019-03-09T01:25:55.972Z,2.73
2019-03-09T01:28:22.816Z,2.73
2019-03-09T01:30:49.774Z,2.40
2019-03-09T01:33:16.693Z,2.90
2019-03-09T01:35:43.634Z,2.80
2019-03-09T01:38:10.594Z,2.17
2019-03-09T01:40:37.438Z,2.70
2019-03-09T01:43:04.370Z,2.20
2019-03-09T01:45:31.459Z,2.80
2019-03-09T01:47:58.470Z,3.10
2019-03-09T01:50:25.447Z,2.77
2019-03-09T01:52:52.410Z,2.47
2019-03-09T01:55:19.352Z,3.00
2019-03-09T01:57:46.170Z,2.87
2019-03-09T02:00:13.535Z,2.90
2019-03-09T02:02:40.497Z,2.53
2019-03-09T02:05:07.951Z,2.33
2019-03-09T02:07:34.818Z,3.53
2019-03-09T02:10:01.847Z,3.00
2019-03-09T02:12:28.889Z,2.60
2019-03-09T02:14:55.977Z,3.80
2019-03-09T02:17:22.905Z,3.67
2019-03-09T02:19:49.950Z,3.03
2019-03-09T02:22:36.528Z,3.73
2019-03-09T02:25:05.138Z,3.47
2019-03-09T02:27:31.980Z,4.07
2019-03-09T02:29:58.857Z,3.50
2019-03-09T02:32:25.831Z,3.17
2019-03-09T02:34:52.859Z,3.00
2019-03-09T02:37:19.738Z,3.20
2019-03-09T02:39:51.784Z,2.77
2019-03-09T02:42:19.025Z,3.90
2019-03-09T02:44:45.913Z,2.77
2019-03-09T02:47:12.721Z,2.73
2019-03-09T02:49:39.643Z,2.77
2019-03-09T02:52:06.633Z,2.60
2019-03-09T02:54:33.434Z,2.93
2019-03-09T02:57:00.253Z,2.60
2019-03-09T02:59:27.150Z,3.30
2019-03-09T03:02:02.155Z,4.20
2019-03-09T03:04:29.286Z,3.47
2019-03-09T03:06:56.113Z,3.63
2019-03-09T03:09:24.323Z,2.83
2019-03-09T03:11:51.206Z,3.63
2019-03-09T03:14:18.311Z,3.40
2019-03-09T03:16:45.136Z,2.63
2019-03-09T03:19:12.104Z,3.37
2019-03-09T03:21:39.074Z,3.53
2019-03-09T03:24:06.099Z,3.63
2019-03-09T03:26:33.051Z,3.60
2019-03-09T03:29:00.058Z,4.00
2019-03-09T03:31:26.886Z,4.27
2019-03-09T03:33:53.743Z,3.90
2019-03-09T03:36:20.662Z,4.03
2019-03-09T03:38:47.622Z,4.40
2019-03-09T03:41:14.687Z,3.90
2019-03-09T03:43:41.618Z,4.00
2019-03-09T03:46:08.414Z,4.63
2019-03-09T03:48:35.507Z,3.87
2019-03-09T03:51:02.428Z,3.60
2019-03-09T03:53:29.424Z,4.30
2019-03-09T03:55:56.492Z,4.10
2019-03-09T03:58:23.522Z,4.33
2019-03-09T04:00:50.461Z,3.70
2019-03-09T04:03:17.525Z,3.73
2019-03-09T04:05:44.563Z,3.97
2019-03-09T04:08:12.093Z,4.00
2019-03-09T04:10:39.121Z,4.50
2019-03-09T04:13:06.371Z,4.00
2019-03-09T04:15:33.438Z,4.10
2019-03-09T04:18:00.498Z,4.63
2019-03-09T04:20:27.415Z,4.40
2019-03-09T04:22:54.319Z,4.23
2019-03-09T04:25:21.267Z,4.43
2019-03-09T04:27:48.178Z,4.93
2019-03-09T04:30:15.185Z,5.20
2019-03-09T04:32:42.056Z,4.73
2019-03-09T04:35:09.073Z,4.87
2019-03-09T04:37:35.896Z,5.03
2019-03-09T04:40:03.369Z,4.60
2019-03-09T04:42:30.171Z,3.93
2019-03-09T04:45:16.772Z,4.17
2019-03-09T04:47:43.779Z,4.63
2019-03-09T04:50:10.825Z,4.60
2019-03-09T04:52:37.686Z,4.93
2019-03-09T04:55:04.749Z,5.07
2019-03-09T04:57:31.678Z,4.87
2019-03-09T04:59:58.566Z,5.00
2019-03-09T05:02:25.494Z,5.20
2019-03-09T05:04:52.941Z,5.27
2019-03-09T05:07:34.070Z,4.40
2019-03-09T05:10:11.286Z,4.90
2019-03-09T05:12:38.239Z,5.80
2019-03-09T05:15:07.005Z,5.77
2019-03-09T05:17:33.925Z,5.77
2019-03-09T05:20:00.811Z,6.10
2019-03-09T05:22:27.650Z,6.33
2019-03-09T05:24:54.692Z,7.23
2019-03-09T05:27:21.670Z,7.67
2019-03-09T05:29:48.498Z,9.10
2019-03-09T05:32:15.455Z,8.90
2019-03-09T05:34:42.296Z,9.47
2019-03-09T05:37:09.114Z,7.87
2019-03-09T05:39:35.946Z,9.20
2019-03-09T05:42:03.002Z,9.83
2019-03-09T05:44:29.850Z,11.10
2019-03-09T05:46:57.169Z,9.70
2019-03-09T05:49:24.038Z,10.00
2019-03-09T05:52:28.860Z,10.43
2019-03-09T05:54:56.164Z,12.80
2019-03-09T05:57:23.070Z,12.00
2019-03-09T05:59:50.020Z,12.80
2019-03-09T06:02:16.978Z,13.00
2019-03-09T06:04:43.799Z,13.57
2019-03-09T06:07:10.962Z,12.03
2019-03-09T06:09:37.869Z,13.00
2019-03-09T06:12:04.693Z,11.93
2019-03-09T06:14:31.636Z,10.73
2019-03-09T06:16:58.837Z,10.57
2019-03-09T06:19:25.772Z,11.43
2019-03-09T06:21:52.786Z,9.47
2019-03-09T06:24:19.765Z,10.37
2019-03-09T06:26:46.980Z,10.00
2019-03-09T06:29:13.789Z,10.70
2019-03-09T06:32:06.107Z,8.67
2019-03-09T06:34:32.929Z,8.40
2019-03-09T06:37:05.909Z,8.07
2019-03-09T06:39:47.745Z,7.50
2019-03-09T06:42:22.323Z,5.27
2019-03-09T06:44:49.370Z,5.30
2019-03-09T06:47:16.194Z,4.67
2019-03-09T06:49:43.118Z,5.07
2019-03-09T06:52:10.069Z,3.93
2019-03-09T06:54:36.914Z,4.50
2019-03-09T06:57:13.244Z,4.90
2019-03-09T06:59:33.056Z,5.10
2019-03-09T07:02:00.000Z,4.90
2019-03-09T07:04:26.925Z,5.53
2019-03-09T07:06:53.770Z,5.20
2019-03-09T07:09:20.678Z,5.57
2019-03-09T07:11:47.485Z,5.63
2019-03-09T07:14:51.614Z,6.40
2019-03-09T07:17:18.425Z,5.80
2019-03-09T07:19:45.476Z,5.60
2019-03-09T07:22:12.326Z,6.27
2019-03-09T07:24:39.256Z,6.20
2019-03-09T07:27:07.549Z,5.40
2019-03-09T07:29:34.417Z,5.63
2019-03-09T07:32:01.259Z,5.83
2019-03-09T07:34:28.291Z,4.87
2019-03-09T07:36:55.233Z,4.70
2019-03-09T07:39:22.352Z,4.83
2019-03-09T07:41:49.149Z,4.80
2019-03-09T07:44:15.994Z,4.47
2019-03-09T07:46:42.839Z,5.03
2019-03-09T07:49:09.756Z,3.00
2019-03-09T07:51:36.707Z,4.03
2019-03-09T07:54:03.642Z,2.93
2019-03-09T07:56:30.482Z,3.07
2019-03-09T07:58:57.357Z,2.23
2019-03-09T08:01:24.183Z,2.30
2019-03-09T08:03:51.012Z,2.80
2019-03-09T08:06:17.885Z,3.17
2019-03-09T08:08:44.773Z,2.70
2019-03-09T08:11:11.667Z,2.97
2019-03-09T08:13:38.577Z,2.87
2019-03-09T08:16:05.520Z,3.03
2019-03-09T08:18:32.462Z,3.03
2019-03-09T08:20:59.407Z,3.20
2019-03-09T08:23:26.275Z,3.30
2019-03-09T08:25:53.276Z,3.63
2019-03-09T08:28:20.254Z,3.23
2019-03-09T08:30:47.178Z,3.57
2019-03-09T08:33:14.101Z,3.90
2019-03-09T08:35:41.065Z,4.13
2019-03-09T08:38:07.873Z,4.70
2019-03-09T08:40:34.818Z,5.33
2019-03-09T08:43:01.737Z,5.47
2019-03-09T08:45:28.834Z,5.60
2019-03-09T08:47:55.659Z,6.13
2019-03-09T08:50:22.585Z,6.33
2019-03-09T08:52:49.769Z,7.07
2019-03-09T08:55:18.068Z,8.20
2019-03-09T08:57:45.308Z,8.27
2019-03-09T09:00:30.410Z,7.57
2019-03-09T09:02:58.000Z,9.13
2019-03-09T09:05:25.014Z,8.00
2019-03-09T09:07:52.246Z,7.97
2019-03-09T09:10:19.314Z,6.97
2019-03-09T09:12:46.440Z,6.33
2019-03-09T09:15:14.918Z,5.13
2019-03-09T09:17:42.276Z,4.53
2019-03-09T09:20:12.694Z,3.73
2019-03-09T09:22:39.620Z,3.00
2019-03-09T09:25:06.715Z,2.87
2019-03-09T09:27:33.526Z,2.73
2019-03-09T09:30:00.688Z,2.53
2019-03-09T09:32:27.754Z,2.77
2019-03-09T09:34:54.889Z,2.77
2019-03-09T09:37:21.839Z,2.40
2019-03-09T09:39:48.894Z,2.80
2019-03-09T09:42:15.914Z,1.57
2019-03-09T09:44:42.850Z,1.83
2019-03-09T09:47:09.798Z,1.37
2019-03-09T09:49:36.739Z,1.40
2019-03-09T09:52:03.758Z,1.40
2019-03-09T09:54:30.737Z,1.27
2019-03-09T09:56:57.666Z,0.93
2019-03-09T09:59:24.510Z,1.20
2019-03-09T10:01:51.510Z,1.27
2019-03-09T10:04:18.320Z,1.57
2019-03-09T10:06:45.344Z,1.30
2019-03-09T10:09:12.307Z,1.50
2019-03-09T10:11:39.230Z,1.37
2019-03-09T10:14:06.138Z,1.10
2019-03-09T10:16:32.989Z,1.23
2019-03-09T10:18:59.853Z,1.50
2019-03-09T10:21:26.874Z,1.57
2019-03-09T10:23:53.858Z,1.57
2019-03-09T10:26:20.795Z,1.40
2019-03-09T10:28:47.909Z,1.60
2019-03-09T10:31:14.974Z,1.73
2019-03-09T10:33:42.115Z,1.40
2019-03-09T10:36:09.032Z,1.40
2019-03-09T10:38:36.007Z,2.30
2019-03-09T10:41:03.014Z,1.70
2019-03-09T10:43:29.838Z,2.43
2019-03-09T10:45:56.751Z,1.63
2019-03-09T10:48:23.802Z,2.43
2019-03-09T10:50:50.642Z,1.80
2019-03-09T10:53:17.551Z,2.33
2019-03-09T10:55:44.679Z,2.30
2019-03-09T10:58:11.591Z,1.87
2019-03-09T11:00:38.663Z,2.23
2019-03-09T11:03:05.738Z,2.10
2019-03-09T11:05:32.741Z,1.90
2019-03-09T11:07:59.856Z,1.73
2019-03-09T11:10:26.786Z,2.23
2019-03-09T11:12:53.894Z,2.00
2019-03-09T11:15:20.945Z,2.37
2019-03-09T11:17:47.849Z,2.07
2019-03-09T11:20:14.904Z,2.40
2019-03-09T11:22:42.088Z,2.33
2019-03-09T11:25:09.122Z,2.43
2019-03-09T11:27:36.317Z,2.70
2019-03-09T11:30:03.927Z,2.30
2019-03-09T11:32:30.851Z,2.03
2019-03-09T11:34:57.691Z,2.97
2019-03-09T11:37:24.657Z,2.53
2019-03-09T11:39:53.852Z,2.17
2019-03-09T11:42:20.761Z,2.13
2019-03-09T11:44:47.647Z,2.43
2019-03-09T11:47:14.456Z,3.20
2019-03-09T11:49:41.271Z,2.70
2019-03-09T11:52:16.346Z,3.07
2019-03-09T11:54:36.939Z,2.70
2019-03-09T11:57:03.854Z,2.77
2019-03-09T11:59:31.106Z,2.53
2019-03-09T12:01:58.133Z,3.23
2019-03-09T12:04:24.966Z,2.77
2019-03-09T12:06:51.822Z,3.03
2019-03-09T12:09:18.731Z,2.70
2019-03-09T12:12:03.107Z,2.93
2019-03-09T12:14:30.117Z,3.03
2019-03-09T12:16:57.134Z,3.30
2019-03-09T12:19:24.198Z,2.30
2019-03-09T12:21:51.239Z,2.20
2019-03-09T12:24:19.931Z,2.80
2019-03-09T12:27:06.828Z,2.10
2019-03-09T12:29:33.879Z,2.80
2019-03-09T12:32:01.002Z,2.87
2019-03-09T12:34:28.070Z,2.70
2019-03-09T12:36:54.989Z,2.70
2019-03-09T12:39:21.797Z,2.67
2019-03-09T12:41:48.761Z,3.83
2019-03-09T12:44:15.660Z,2.40
2019-03-09T12:46:42.485Z,2.37
2019-03-09T12:49:09.356Z,2.83
2019-03-09T12:51:36.387Z,2.40
2019-03-09T12:54:03.427Z,1.90
2019-03-09T12:56:30.375Z,1.67
2019-03-09T12:58:57.328Z,2.20
2019-03-09T13:01:24.331Z,1.93
2019-03-09T13:03:51.284Z,2.23
2019-03-09T13:06:18.182Z,1.93
2019-03-09T13:08:45.017Z,2.57
2019-03-09T13:11:11.964Z,1.93
2019-03-09T13:13:39.059Z,2.47
2019-03-09T13:16:05.978Z,1.90
2019-03-09T13:18:32.837Z,2.47
2019-03-09T13:20:59.759Z,2.10
2019-03-09T13:23:26.562Z,2.23
2019-03-09T13:25:53.426Z,2.87
2019-03-09T13:28:20.485Z,2.30
2019-03-09T13:30:47.406Z,3.30
2019-03-09T13:33:14.350Z,2.27
2019-03-09T13:35:41.418Z,2.53
2019-03-09T13:38:08.331Z,2.47
2019-03-09T13:40:35.305Z,1.40
2019-03-09T13:43:02.227Z,1.90
2019-03-09T13:45:29.382Z,1.60
2019-03-09T13:47:56.271Z,2.40
2019-03-09T13:50:23.177Z,1.40
2019-03-09T13:52:50.202Z,1.60
2019-03-09T13:55:17.155Z,1.93
2019-03-09T13:57:44.162Z,2.83
2019-03-09T14:00:12.542Z,2.67
2019-03-09T14:02:39.486Z,2.27
2019-03-09T14:05:06.523Z,2.70
2019-03-09T14:07:33.529Z,3.07
2019-03-09T14:10:00.475Z,2.60
2019-03-09T14:12:27.338Z,3.27
2019-03-09T14:14:54.159Z,2.23
2019-03-09T14:17:21.102Z,2.30
2019-03-09T14:19:48.010Z,2.67
2019-03-09T14:22:14.938Z,2.20
2019-03-09T14:24:41.803Z,3.30
2019-03-09T14:27:08.824Z,2.50
2019-03-09T14:29:35.768Z,2.27
2019-03-09T14:32:02.722Z,2.70
2019-03-09T14:34:29.529Z,2.03
2019-03-09T14:36:56.474Z,2.30
2019-03-09T14:39:23.428Z,2.30
2019-03-09T14:41:50.214Z,2.53
2019-03-09T14:44:17.147Z,2.57
2019-03-09T14:46:44.117Z,2.23
2019-03-09T14:49:11.006Z,2.80
2019-03-09T14:51:37.834Z,2.20
2019-03-09T14:54:04.784Z,2.40
2019-03-09T14:56:31.681Z,2.10
2019-03-09T14:58:58.506Z,2.40
2019-03-09T15:01:25.474Z,2.10
2019-03-09T15:03:52.305Z,2.63
2019-03-09T15:06:19.208Z,2.80
2019-03-09T15:08:46.150Z,2.67
2019-03-09T15:11:13.054Z,2.83
2019-03-09T15:13:40.075Z,3.13
2019-03-09T15:16:07.018Z,2.43
2019-03-09T15:18:33.886Z,2.57
2019-03-09T15:21:01.226Z,3.00
2019-03-09T15:23:28.107Z,2.43
2019-03-09T15:25:54.902Z,2.60
2019-03-09T15:28:21.704Z,2.13
2019-03-09T15:30:48.560Z,2.07
2019-03-09T15:33:15.583Z,2.30
2019-03-09T15:35:42.502Z,3.00
2019-03-09T15:38:09.435Z,3.67
2019-03-09T15:40:36.439Z,2.77
2019-03-09T15:43:03.547Z,2.80
2019-03-09T15:45:30.408Z,3.60
2019-03-09T15:47:57.404Z,2.93
2019-03-09T15:50:24.501Z,2.70
2019-03-09T15:52:51.643Z,2.03
2019-03-09T15:55:19.125Z,2.47
2019-03-09T15:57:46.241Z,1.97
2019-03-09T16:00:15.210Z,2.63
2019-03-09T16:02:42.226Z,3.03
2019-03-09T16:05:09.341Z,2.40
2019-03-09T16:07:36.388Z,2.40
2019-03-09T16:10:04.099Z,2.47
2019-03-09T16:12:30.902Z,2.67
2019-03-09T16:14:57.949Z,2.30
2019-03-09T16:17:24.745Z,2.40
2019-03-09T16:19:51.584Z,2.07
2019-03-09T16:22:18.513Z,2.47
2019-03-09T16:24:45.334Z,2.40
2019-03-09T16:27:12.335Z,2.10
2019-03-09T16:29:39.180Z,2.50
2019-03-09T16:32:06.199Z,2.67
2019-03-09T16:34:33.826Z,2.30
2019-03-09T16:37:00.761Z,2.50
2019-03-09T16:39:27.596Z,3.00
2019-03-09T16:41:54.422Z,2.97
2019-03-09T16:44:21.390Z,2.50
2019-03-09T16:46:48.311Z,3.03
2019-03-09T16:49:15.119Z,3.30
2019-03-09T16:51:42.077Z,2.27
2019-03-09T16:54:08.898Z,3.93
2019-03-09T16:56:35.714Z,3.60
2019-03-09T16:59:02.661Z,2.93
2019-03-09T17:01:29.468Z,3.07
2019-03-09T17:03:56.264Z,2.93
2019-03-09T17:06:23.101Z,3.37
2019-03-09T17:08:50.096Z,3.67
2019-03-09T17:11:17.014Z,2.73
2019-03-09T17:13:43.873Z,3.30
2019-03-09T17:16:10.692Z,3.93
2019-03-09T17:18:37.674Z,2.83
2019-03-09T17:21:04.614Z,3.17
2019-03-09T17:23:31.619Z,3.07
2019-03-09T17:25:58.429Z,3.30
2019-03-09T17:28:25.377Z,3.20
2019-03-09T17:30:52.205Z,2.80
2019-03-09T17:33:19.228Z,3.03
2019-03-09T17:35:46.266Z,3.17
2019-03-09T17:38:13.346Z,2.90
2019-03-09T17:40:40.429Z,4.00
2019-03-09T17:43:07.392Z,2.77
2019-03-09T17:45:34.313Z,2.70
2019-03-09T17:48:01.138Z,2.90
2019-03-09T17:50:28.094Z,3.27
2019-03-09T17:52:54.904Z,3.17
2019-03-09T17:55:21.900Z,3.10
2019-03-09T17:57:49.040Z,3.30
2019-03-09T18:00:18.455Z,3.53
2019-03-09T18:02:45.461Z,3.67
2019-03-09T18:05:12.503Z,3.13
2019-03-09T18:07:39.510Z,3.47
2019-03-09T18:10:10.445Z,4.00
2019-03-09T18:12:37.321Z,4.60
2019-03-09T18:15:04.774Z,4.23
2019-03-09T18:17:31.581Z,4.57
2019-03-09T18:19:58.454Z,4.40
2019-03-09T18:22:25.262Z,3.70
2019-03-09T18:24:52.177Z,4.80
2019-03-09T18:27:19.025Z,4.23
2019-03-09T18:29:45.930Z,3.97
2019-03-09T18:32:12.749Z,3.63
2019-03-09T18:34:39.613Z,3.60
2019-03-09T18:37:06.413Z,3.67
2019-03-09T18:39:33.238Z,3.97
2019-03-09T18:42:00.096Z,3.43
2019-03-09T18:44:27.002Z,4.07
2019-03-09T18:46:53.824Z,3.80
2019-03-09T18:49:20.661Z,3.17
2019-03-09T18:51:47.578Z,3.30
2019-03-09T18:54:14.371Z,4.43
2019-03-09T18:56:41.306Z,3.67
2019-03-09T18:59:08.115Z,3.20
2019-03-09T19:01:35.016Z,3.50
2019-03-09T19:04:01.871Z,3.57
2019-03-09T19:06:28.703Z,4.27
2019-03-09T19:08:55.693Z,3.17
2019-03-09T19:11:22.537Z,3.17
2019-03-09T19:13:49.438Z,3.40
2019-03-09T19:16:16.349Z,3.17
2019-03-09T19:18:43.197Z,3.33
2019-03-09T19:21:10.005Z,2.80
2019-03-09T19:23:37.000Z,2.80
2019-03-09T19:26:04.026Z,2.80
2019-03-09T19:28:30.813Z,3.40
2019-03-09T19:30:57.730Z,2.80
2019-03-09T19:33:24.648Z,3.10
2019-03-09T19:35:51.665Z,3.53
2019-03-09T19:38:18.466Z,3.87
2019-03-09T19:40:45.286Z,3.50
2019-03-09T19:43:12.189Z,3.77
2019-03-09T19:45:39.085Z,3.67
2019-03-09T19:48:05.911Z,3.90
2019-03-09T19:50:32.710Z,3.33
2019-03-09T19:52:59.714Z,4.17
2019-03-09T19:55:26.756Z,3.33
2019-03-09T19:57:53.558Z,3.57
2019-03-09T20:00:20.479Z,2.77
2019-03-09T20:02:47.433Z,2.70
2019-03-09T20:05:14.429Z,3.00
2019-03-09T20:07:41.313Z,3.17
2019-03-09T20:10:09.573Z,2.70
2019-03-09T20:12:36.578Z,2.30
2019-03-09T20:15:04.466Z,2.60
2019-03-09T20:17:31.306Z,2.80
2019-03-09T20:19:58.123Z,2.70
2019-03-09T20:22:24.925Z,2.37
2019-03-09T20:24:51.916Z,2.87
2019-03-09T20:27:18.902Z,1.83
2019-03-09T20:29:45.703Z,2.43
2019-03-09T20:32:12.736Z,1.87
2019-03-09T20:34:39.563Z,2.00
2019-03-09T20:37:06.480Z,1.90
2019-03-09T20:39:33.318Z,2.10
2019-03-09T20:42:00.125Z,2.53
2019-03-09T20:44:26.930Z,2.53
2019-03-09T20:46:53.797Z,2.40
2019-03-09T20:49:20.609Z,2.87
2019-03-09T20:51:47.421Z,3.33
2019-03-09T20:54:14.294Z,2.63
2019-03-09T20:56:41.309Z,2.43
2019-03-09T20:59:08.219Z,2.43
2019-03-09T21:01:35.178Z,2.63
2019-03-09T21:04:01.970Z,3.43
2019-03-09T21:06:28.867Z,2.63
2019-03-09T21:08:55.919Z,2.67
2019-03-09T21:11:22.727Z,2.50
2019-03-09T21:13:49.702Z,3.17
2019-03-09T21:16:16.649Z,2.27
2019-03-09T21:18:43.665Z,2.70
2019-03-09T21:21:10.570Z,1.97
2019-03-09T21:23:37.434Z,2.20
2019-03-09T21:26:04.357Z,2.37
2019-03-09T21:28:31.155Z,1.93
2019-03-09T21:30:57.989Z,2.40
2019-03-09T21:33:24.799Z,1.90
2019-03-09T21:35:51.605Z,2.60
2019-03-09T21:38:18.559Z,2.50
2019-03-09T21:40:45.364Z,2.90
2019-03-09T21:43:12.173Z,2.30
2019-03-09T21:45:39.135Z,2.53
2019-03-09T21:48:05.921Z,1.93
2019-03-09T21:50:32.948Z,2.73
2019-03-09T21:52:59.801Z,2.30
2019-03-09T21:55:26.710Z,2.20
2019-03-09T21:57:53.596Z,2.30
2019-03-09T22:00:20.758Z,1.87
2019-03-09T22:02:50.061Z,2.30
2019-03-09T22:05:16.601Z,2.10
2019-03-09T22:07:43.667Z,2.33
2019-03-09T22:10:10.989Z,2.17
2019-03-09T22:12:37.794Z,2.67
2019-03-09T22:15:05.753Z,1.93
2019-03-09T22:17:32.562Z,2.07
2019-03-09T22:19:59.363Z,2.20
2019-03-09T22:22:26.244Z,1.90
2019-03-09T22:24:53.054Z,2.33
2019-03-09T22:27:19.878Z,2.17
2019-03-09T22:29:46.734Z,2.53
2019-03-09T22:32:13.647Z,2.17
2019-03-09T22:34:40.460Z,2.33
2019-03-09T22:37:07.297Z,2.40
2019-03-09T22:39:34.094Z,2.80
2019-03-09T22:42:00.994Z,2.73
2019-03-09T22:44:27.838Z,2.57
2019-03-09T22:46:54.626Z,3.13
2019-03-09T22:49:21.445Z,2.50
2019-03-09T22:51:48.402Z,2.97
2019-03-09T22:54:15.314Z,2.17
2019-03-09T22:56:42.141Z,2.60
2019-03-09T22:59:08.984Z,1.67
2019-03-09T23:01:35.990Z,2.27
2019-03-09T23:04:02.991Z,2.10
2019-03-09T23:06:30.022Z,2.00
2019-03-09T23:08:56.926Z,2.83
2019-03-09T23:11:23.723Z,2.40
2019-03-09T23:13:50.602Z,2.57
2019-03-09T23:16:17.415Z,2.00
2019-03-09T23:18:44.339Z,2.07
2019-03-09T23:21:11.416Z,2.10
2019-03-09T23:23:38.234Z,2.07
2019-03-09T23:26:05.234Z,2.40
2019-03-09T23:28:48.313Z,3.03
2019-03-09T23:31:15.226Z,2.77
2019-03-09T23:33:42.155Z,2.33
2019-03-09T23:36:09.130Z,3.03
2019-03-09T23:38:36.151Z,3.00
2019-03-09T23:41:03.221Z,2.97
2019-03-09T23:43:30.070Z,2.63
2019-03-09T23:45:57.099Z,3.40
2019-03-09T23:48:24.022Z,2.70
2019-03-09T23:50:51.069Z,3.30
2019-03-09T23:53:18.082Z,3.77
2019-03-09T23:55:44.871Z,3.83
2019-03-09T23:58:11.937Z,3.43
